Latest Weather Observations for Perth Airport

IDW60801

Issued at 6:23 am WST Wednesday 8 December 2021 (issued every 10 minutes, with the page automatically refreshed every 10 minutes)

About weather observations | Map of weather stations | Latest weather observations for WA | Other Formats
Station Details ID: 009021 Name: PERTH AIRPORT Lat: -31.93 Lon: 115.98 Height: 15.4 m
Data from the previous 72 hours. | See also: Recent months at Perth Airport
Date/Time
WST
Temp
°C
App
Temp
°C
Dew
Point
°C
Rel
Hum
%
Delta-T
°C
Wind Press
QNH
hPa
Press
MSL
hPa
Rain since
9am
mm
Dir  Spd
km/h
Gust
km/h
Spd
kts
Gust
kts
08/06:00am 22.0 16.5 9.2 44 6.9 ENE 28 37 15 20 1010.5 1010.4 0.0
08/05:30am 21.8 15.5 9.0 44 6.8 E 32 43 17 23 1010.4 1010.3 0.0
08/05:00am 21.7 15.4 8.9 44 6.8 E 32 46 17 25 1010.2 1010.1 0.0
08/04:30am 21.9 15.4 9.1 44 6.8 E 33 44 18 24 1010.0 1009.9 0.0
08/04:00am 22.3 16.4 9.1 43 7.1 E 30 39 16 21 1010.1 1010.0 0.0
08/03:30am 22.3 15.5 9.1 43 7.1 E 35 48 19 26 1009.9 1009.8 0.0
08/03:00am 22.8 15.6 9.2 42 7.3 ENE 37 50 20 27 1009.6 1009.5 0.0
08/02:40am 23.0 16.5 9.0 41 7.5 ENE 33 52 18 28 1009.5 1009.4 0.0
08/02:30am 23.1 16.3 9.1 41 7.5 ENE 35 52 19 28 1009.6 1009.5 0.0
08/02:18am 23.4 16.5 9.0 40 7.7 ENE 35 54 19 29 1009.5 1009.4 0.0
08/02:00am 23.7 16.8 8.9 39 8.0 E 35 48 19 26 1009.4 1009.3 0.0
08/01:45am 24.0 17.7 8.8 38 8.2 E 32 50 17 27 1009.7 1009.6 0.0
08/01:30am 24.3 17.9 8.7 37 8.4 E 32 43 17 23 1009.7 1009.6 0.0
08/01:17am 24.6 18.6 8.5 36 8.6 E 30 48 16 26 1009.8 1009.7 0.0
08/01:00am 25.2 18.3 8.7 35 8.9 E 35 50 19 27 1009.8 1009.7 0.0
08/12:30am 25.9 19.8 8.4 33 9.4 E 30 44 16 24 1009.9 1009.8 0.0
08/12:12am 26.3 19.8 8.3 32 9.7 E 32 50 17 27 1009.6 1009.5 0.0
08/12:00am 26.7 20.0 8.2 31 10.0 E 33 50 18 27 1009.4 1009.3 0.0
 
Date/Time
WST
Temp
°C
App
Temp
°C
Dew
Point
°C
Rel
Hum
%
Delta-T
°C
Wind Press
QNH
hPa
Press
MSL
hPa
Rain since
9am
mm
Dir  Spd
km/h
Gust
km/h
Spd
kts
Gust
kts
07/11:47pm 27.3 19.6 8.7 31 10.2 E 39 57 21 31 1009.1 1009.0 0.0
07/11:30pm 28.3 19.9 9.1 30 10.6 E 43 59 23 32 1008.6 1008.5 0.0
07/11:24pm 28.6 20.5 8.8 29 10.9 E 41 59 22 32 1008.5 1008.4 0.0
07/11:00pm 29.4 21.0 9.0 28 11.3 E 43 59 23 32 1008.5 1008.4 0.0
07/10:30pm 29.6 22.5 9.7 29 11.2 E 37 61 20 33 1008.8 1008.7 0.0
07/10:00pm 29.9 22.8 9.4 28 11.5 E 37 54 20 29 1008.9 1008.8 0.0
07/09:30pm 30.2 23.5 9.7 28 11.5 ESE 35 57 19 31 1008.6 1008.5 0.0
07/09:17pm 30.3 24.0 9.8 28 11.6 ESE 33 52 18 28 1008.5 1008.4 0.0
07/09:00pm 30.5 25.2 9.9 28 11.7 ESE 28 41 15 22 1008.5 1008.4 0.0
07/08:30pm 30.7 25.8 10.1 28 11.7 SE 26 41 14 22 1008.9 1008.8 0.0
07/08:00pm 30.9 27.9 10.8 29 11.6 ESE 17 28 9 15 1008.9 1008.8 0.0
07/07:30pm 31.2 28.7 11.1 29 11.6 SE 15 22 8 12 1009.0 1008.9 0.0
07/07:00pm 32.1 29.3 11.3 28 12.1 ESE 17 22 9 12 1009.0 1008.9 0.0
07/06:30pm 33.3 29.0 10.6 25 13.2 ESE 24 32 13 17 1008.5 1008.4 0.0
07/06:00pm 33.9 29.5 10.5 24 13.6 ESE 24 39 13 21 1008.3 1008.2 0.0
07/05:30pm 34.6 29.8 11.7 25 13.6 ESE 28 37 15 20 1008.2 1008.1 0.0
07/05:00pm 34.6 29.6 11.1 24 13.8 E 28 35 15 19 1008.4 1008.3 0.0
07/04:30pm 34.5 29.0 10.4 23 14.0 E 30 39 16 21 1008.6 1008.5 0.0
07/04:00pm 34.9 29.6 11.3 24 13.9 ESE 30 43 16 23 1008.9 1008.8 0.0
07/03:30pm 34.9 29.8 12.0 25 13.6 ESE 30 41 16 22 1009.1 1009.0 0.0
07/03:00pm 34.5 28.8 11.0 24 13.8 E 32 41 17 22 1009.3 1009.2 0.0
07/02:30pm 33.8 28.2 11.6 26 13.1 ESE 32 41 17 22 1009.8 1009.7 0.0
07/02:00pm 33.4 27.3 11.9 27 12.7 ESE 35 46 19 25 1010.3 1010.2 0.0
07/01:50pm 33.0 27.2 10.9 26 12.9 E 32 50 17 27 1010.5 1010.4 0.0
07/01:30pm 32.2 25.8 10.8 27 12.4 E 35 52 19 28 1010.8 1010.7 0.0
07/01:00pm 32.1 25.9 11.3 28 12.1 ESE 35 48 19 26 1011.0 1010.9 0.0
07/12:44pm 31.8 25.8 12.1 30 11.6 E 35 54 19 29 1011.3 1011.2 0.0
07/12:30pm 30.4 24.2 11.4 31 11.0 E 35 50 19 27 1011.4 1011.3 0.0
07/12:18pm 30.5 24.3 11.5 31 11.0 E 35 54 19 29 1011.6 1011.5 0.0
07/12:00pm 29.5 22.5 11.1 32 10.6 E 39 52 21 28 1011.9 1011.8 0.0
07/11:32am 28.8 22.5 10.9 33 10.2 ESE 35 54 19 29 1012.2 1012.1 0.0
07/11:30am 28.7 22.3 10.8 33 10.2 ESE 35 50 19 27 1012.3 1012.2 0.0
07/11:18am 27.5 20.0 10.7 35 9.5 E 41 54 22 29 1012.5 1012.4 0.0
07/11:00am 27.4 21.0 10.6 35 9.5 E 35 52 19 28 1012.6 1012.5 0.0
07/10:34am 26.0 18.7 10.2 37 8.8 E 39 57 21 31 1013.0 1012.9 0.0
07/10:30am 25.8 19.2 10.0 37 8.8 E 35 50 19 27 1013.1 1013.0 0.0
07/10:04am 25.3 18.5 10.7 40 8.2 E 37 56 20 30 1013.1 1013.0 0.0
07/10:00am 24.8 17.5 10.3 40 8.0 E 39 56 21 30 1013.2 1013.1 0.0
07/09:30am 23.6 15.5 9.9 42 7.5 E 43 61 23 33 1013.6 1013.5 0.0
07/09:03am 22.8 15.4 9.9 44 7.0 E 39 57 21 31 1013.6 1013.5 0.0
07/09:00am 22.5 14.8 10.0 45 6.8 E 41 57 22 31 1013.6 1013.5 0.0
07/08:30am 21.6 14.6 9.8 47 6.4 E 37 52 20 28 1013.9 1013.8 0.0
07/08:00am 20.0 13.2 9.3 50 5.7 E 35 63 19 34 1014.0 1013.9 0.0
07/07:30am 19.0 13.1 8.9 52 5.3 E 30 48 16 26 1013.9 1013.8 0.0
07/07:15am 18.4 13.2 8.9 54 4.9 E 26 52 14 28 1013.8 1013.7 0.0
07/07:00am 17.9 13.1 8.7 55 4.8 E 24 41 13 22 1013.9 1013.8 0.0
07/06:50am 17.5 14.3 8.6 56 4.6 ESE 15 39 8 21 1013.8 1013.7 0.0
07/06:30am 17.0 13.5 8.7 58 4.3 SE 17 41 9 22 1013.6 1013.5 0.0
07/06:00am 16.1 11.5 8.3 60 4.0 ESE 22 35 12 19 1013.6 1013.5 0.0
07/05:30am 15.7 10.4 8.4 62 3.7 ESE 26 44 14 24 1013.6 1013.5 0.0
07/05:11am 15.6 9.9 8.4 62 3.6 ESE 28 46 15 25 1013.6 1013.5 0.0
07/05:00am 15.7 10.8 8.4 62 3.7 E 24 37 13 20 1013.7 1013.6 0.0
07/04:30am 15.7 9.6 8.4 62 3.7 ESE 30 48 16 26 1013.3 1013.2 0.0
07/04:00am 15.7 10.0 8.4 62 3.7 ESE 28 41 15 22 1013.4 1013.3 0.0
07/03:30am 15.7 10.5 8.7 63 3.6 ESE 26 39 14 21 1013.5 1013.4 0.0
07/03:00am 15.7 10.9 8.7 63 3.6 ESE 24 43 13 23 1013.7 1013.6 0.0
07/02:30am 15.7 11.8 8.7 63 3.6 ESE 19 33 10 18 1013.6 1013.5 0.0
07/02:00am 15.8 12.6 8.5 62 3.7 E 15 33 8 18 1013.5 1013.4 0.0
07/01:30am 16.0 11.1 8.5 61 3.8 E 24 46 13 25 1013.4 1013.3 0.0
07/01:00am 16.2 10.5 8.4 60 4.0 E 28 50 15 27 1013.4 1013.3 0.0
07/12:41am 16.6 10.0 8.6 59 4.1 E 33 52 18 28 1013.5 1013.4 0.0
07/12:30am 16.9 11.3 8.8 59 4.2 E 28 39 15 21 1013.5 1013.4 0.0
07/12:00am 17.4 11.9 9.1 58 4.3 ESE 28 52 15 28 1013.5 1013.4 0.0
 
Date/Time
WST
Temp
°C
App
Temp
°C
Dew
Point
°C
Rel
Hum
%
Delta-T
°C
Wind Press
QNH
hPa
Press
MSL
hPa
Rain since
9am
mm
Dir  Spd
km/h
Gust
km/h
Spd
kts
Gust
kts
06/11:59pm 17.4 11.8 8.8 57 4.4 ESE 28 52 15 28 1013.6 1013.5 0.0
06/11:30pm 18.2 14.2 9.0 55 4.8 E 20 35 11 19 1013.6 1013.5 0.0
06/11:00pm 19.2 16.1 8.8 51 5.4 ESE 15 28 8 15 1013.6 1013.5 0.0
06/10:30pm 20.3 16.3 9.2 49 5.9 ESE 20 39 11 21 1013.2 1013.1 0.0
06/10:00pm 21.5 16.8 9.4 46 6.5 ESE 24 52 13 28 1012.4 1012.3 0.0
06/09:35pm 22.4 17.0 9.6 44 6.9 ESE 28 54 15 29 1012.0 1011.9 0.0
06/09:30pm 22.5 16.3 9.3 43 7.1 ESE 32 48 17 26 1011.9 1011.8 0.0
06/09:00pm 23.5 17.4 9.9 42 7.4 SE 32 57 17 31 1011.9 1011.8 0.0
06/08:43pm 24.3 19.1 10.2 41 7.8 ESE 28 52 15 28 1011.9 1011.8 0.0
06/08:30pm 24.9 20.4 10.0 39 8.2 SE 24 39 13 21 1011.8 1011.7 0.0
06/08:23pm 25.3 20.0 10.0 38 8.5 SE 28 46 15 25 1011.8 1011.7 0.0
06/08:00pm 26.5 21.9 9.8 35 9.3 SE 24 35 13 19 1011.8 1011.7 0.0
06/07:30pm 27.4 21.9 9.3 32 10.0 SE 28 39 15 21 1011.6 1011.5 0.0
06/07:00pm 28.5 22.6 9.2 30 10.7 SE 30 39 16 21 1011.4 1011.3 0.0
06/06:30pm 30.3 24.2 8.1 25 12.2 SE 30 39 16 21 1011.1 1011.0 0.0
06/06:00pm 31.4 25.3 6.5 21 13.4 SE 28 33 15 18 1010.8 1010.7 0.0
06/05:30pm 32.2 25.1 5.7 19 14.1 SE 32 37 17 20 1010.6 1010.5 0.0
06/05:00pm 32.6 26.5 6.7 20 14.1 SE 28 35 15 19 1010.6 1010.5 0.0
06/04:30pm 32.7 26.3 6.8 20 14.1 ESE 30 39 16 21 1010.7 1010.6 0.0
06/04:00pm 32.7 27.0 6.8 20 14.1 SSE 26 33 14 18 1010.9 1010.8 0.0
06/03:30pm 32.6 26.5 6.7 20 14.1 SSE 28 37 15 20 1011.3 1011.2 0.0
06/03:00pm 32.4 28.2 7.3 21 13.8 SE 19 39 10 21 1011.6 1011.5 0.0
06/02:30pm 32.5 27.5 8.0 22 13.6 SE 24 35 13 19 1012.0 1011.9 0.0
06/02:00pm 31.6 26.2 8.0 23 13.0 SE 26 35 14 19 1012.2 1012.1 0.0
06/01:30pm 31.7 27.6 8.0 23 13.1 ESE 19 28 10 15 1012.5 1012.4 0.0
06/01:00pm 30.8 26.4 7.3 23 12.8 ESE 20 30 11 16 1012.9 1012.8 0.0
06/12:30pm 30.3 26.4 8.7 26 12.0 SE 19 35 10 19 1013.5 1013.4 0.0
06/12:00pm 29.3 24.6 7.8 26 11.7 SE 22 35 12 19 1013.8 1013.7 0.0
06/11:30am 28.7 24.0 7.9 27 11.3 ESE 22 35 12 19 1014.3 1014.2 0.0
06/11:00am 27.7 22.7 8.1 29 10.6 SE 24 32 13 17 1014.7 1014.6 0.0
06/10:30am 26.4 20.6 7.9 31 9.9 SE 28 48 15 26 1015.0 1014.9 0.0
06/10:24am 25.9 20.0 7.5 31 9.8 SE 28 48 15 26 1015.1 1015.0 0.0
06/10:00am 25.8 20.9 8.3 33 9.4 ESE 24 33 13 18 1015.2 1015.1 0.0
06/09:30am 24.0 17.8 8.0 36 8.5 ESE 30 37 16 20 1015.7 1015.6 0.0
06/09:00am 23.0 17.3 8.3 39 7.8 ESE 28 37 15 20 1016.1 1016.0 0.0
06/08:30am 21.8 17.7 8.7 43 6.9 E 20 32 11 17 1016.2 1016.1 0.0
06/08:00am 20.9 17.0 8.5 45 6.5 ESE 19 26 10 14 1016.3 1016.2 0.0
06/07:30am 19.9 15.9 8.9 49 5.8 ESE 20 32 11 17 1016.2 1016.1 0.0
06/07:00am 18.6 13.9 9.1 54 5.0 SE 24 35 13 19 1016.3 1016.2 0.0
06/06:30am 17.7 13.8 9.6 59 4.3 ESE 20 30 11 16 1016.4 1016.3 0.0
06/06:00am 16.8 13.0 9.7 63 3.7 SE 20 28 11 15 1016.1 1016.0 0.0
06/05:30am 16.5 14.0 9.7 64 3.6 SE 13 17 7 9 1015.7 1015.6 0.0
06/05:00am 16.5 12.8 9.4 63 3.7 SE 19 33 10 18 1015.4 1015.3 0.0
06/04:30am 16.8 14.3 9.7 63 3.7 SSE 13 17 7 9 1015.1 1015.0 0.0
06/04:00am 17.2 14.0 10.1 63 3.8 SE 17 32 9 17 1014.9 1014.8 0.0
06/03:30am 17.7 13.1 9.8 60 4.2 SE 24 43 13 23 1014.7 1014.6 0.0
06/03:00am 18.3 15.5 9.9 58 4.5 ESE 15 28 8 15 1014.4 1014.3 0.0
06/02:30am 19.2 16.8 9.9 55 5.0 ESE 13 30 7 16 1014.3 1014.2 0.0
06/02:00am 19.8 15.8 10.5 55 5.0 SE 22 37 12 20 1014.0 1013.9 0.0
06/01:30am 20.4 16.9 10.2 52 5.5 SE 19 33 10 18 1014.0 1013.9 0.0
06/01:00am 21.4 18.5 11.1 52 5.7 SSE 17 32 9 17 1013.9 1013.8 0.0
06/12:30am 21.9 19.6 11.9 53 5.6 S 15 26 8 14 1014.0 1013.9 0.0
06/12:00am 22.5 19.9 11.9 51 6.0 SSE 17 30 9 16 1013.9 1013.8 0.0
 
Date/Time
WST
Temp
°C
App
Temp
°C
Dew
Point
°C
Rel
Hum
%
Delta-T
°C
Wind Press
QNH
hPa
Press
MSL
hPa
Rain since
9am
mm
Dir  Spd
km/h
Gust
km/h
Spd
kts
Gust
kts
05/11:30pm 23.3 21.1 12.0 49 6.4 S 15 26 8 14 1013.7 1013.6 0.0
05/11:08pm 23.7 20.1 12.0 47 6.6 SE 22 43 12 23 1013.5 1013.4 0.0
05/11:00pm 23.9 20.7 11.9 47 6.8 SE 20 39 11 21 1013.6 1013.5 0.0
05/10:30pm 23.9 19.9 11.9 47 6.8 S 24 33 13 18 1013.5 1013.4 0.0
05/10:00pm 22.5 20.7 13.3 56 5.3 S 15 17 8 9 1013.5 1013.4 0.0
05/09:30pm 23.2 19.3 13.4 54 5.7 SSW 26 32 14 17 1013.2 1013.1 0.0
05/09:00pm 23.9 19.3 13.4 51 6.1 SSW 30 37 16 20 1012.9 1012.8 0.0
05/08:30pm 24.3 20.1 13.5 51 6.3 SSW 28 33 15 18 1012.7 1012.6 0.0
05/08:00pm 24.7 20.5 13.6 50 6.5 SSW 28 33 15 18 1012.6 1012.5 0.0
05/07:30pm 25.1 21.6 13.3 48 6.9 SSW 24 33 13 18 1012.6 1012.5 0.0
05/07:00pm 26.2 22.0 12.3 42 8.0 SSW 26 35 14 19 1012.5 1012.4 0.0
05/06:30pm 27.4 21.7 11.0 36 9.3 SSW 32 37 17 20 1012.3 1012.2 0.0
05/06:00pm 28.1 22.3 10.8 34 9.8 SW 32 39 17 21 1012.2 1012.1 0.0
05/05:30pm 29.0 22.7 9.7 30 10.8 SW 33 48 18 26 1011.9 1011.8 0.0
05/05:00pm 30.3 23.5 9.2 27 11.8 SW 35 46 19 25 1011.6 1011.5 0.0
05/04:30pm 31.5 25.2 9.7 26 12.4 SW 33 39 18 21 1011.5 1011.4 0.0
05/04:00pm 31.5 24.0 7.9 23 13.0 SW 37 48 20 26 1011.6 1011.5 0.0
05/03:30pm 32.1 25.4 9.6 25 12.8 SW 35 44 19 24 1011.8 1011.7 0.0
05/03:00pm 32.2 26.4 11.4 28 12.2 SW 33 43 18 23 1012.1 1012.0 0.0
05/02:30pm 31.9 26.2 11.1 28 12.1 SW 32 44 17 24 1012.0 1011.9 0.0
05/02:00pm 32.0 26.1 11.2 28 12.1 WSW 33 43 18 23 1012.1 1012.0 0.0
05/01:30pm 32.0 26.6 12.3 30 11.7 WSW 32 39 17 21 1012.4 1012.3 0.0
05/01:00pm 32.0 27.6 12.8 31 11.5 W 28 33 15 18 1012.5 1012.4 0.0
05/12:30pm 31.6 29.5 15.1 36 10.2 W 20 30 11 16 1012.6 1012.5 0.0
05/12:00pm 33.2 31.0 9.3 23 13.6 S 11 24 6 13 1012.9 1012.8 0.0
05/11:30am 32.0 29.5 11.2 28 12.1 SSW 15 22 8 12 1013.3 1013.2 0.0
05/11:00am 31.1 29.9 11.5 30 11.4 SSW 9 15 5 8 1013.6 1013.5 0.0
05/10:30am 30.3 30.0 11.3 31 11.0 N 4 7 2 4 1014.0 1013.9 0.0
05/10:00am 29.1 27.8 11.2 33 10.3 ESE 9 17 5 9 1014.3 1014.2 0.0
05/09:30am 28.7 26.8 11.7 35 9.8 E 13 19 7 10 1014.4 1014.3 0.0
05/09:00am 26.9 24.6 11.8 39 8.7 E 15 20 8 11 1014.7 1014.6 0.0
05/08:30am 25.0 22.3 11.6 43 7.6 E 17 22 9 12 1015.1 1015.0 0.0
05/08:00am 24.0 21.2 11.3 45 7.1 ENE 17 22 9 12 1015.2 1015.1 0.0
05/07:30am 22.5 20.6 10.6 47 6.5 ENE 11 15 6 8 1015.1 1015.0 0.0
05/07:00am 21.4 18.6 9.9 48 6.2 E 15 24 8 13 1015.1 1015.0 0.0
05/06:30am 20.7 18.7 10.2 51 5.7 ENE 11 22 6 12 1015.1 1015.0 0.0

Other formats

Comma delimited format used in spreadsheet applications
http://www.bom.gov.au/fwo/IDW60801/IDW60801.94610.axf

JavaScript Object Notation format (JSON) in row-major order
http://www.bom.gov.au/fwo/IDW60801/IDW60801.94610.json

Data quality

Most of these data are generated automatically and are frequently updated. Quality checks on data are not normally performed. It is possible for incorrect values to appear. Refer to information at About Latest Weather Observations and please check the disclaimer before using these data.